Time;durP1;ratioP1;P1;durP2;ratioP2;P2;SDS_P1;SDS_P2;PMS_P1;PMS_P2;Temp;Humidity;BMP_temperature;BMP_pressure;BME280_temperature;BME280_humidity;BME280_pressure;Samples;Min_cycle;Max_cycle;Signal;HPM_P1;HPM_P2
2022/04/11 00:00:33;;;;;;;10.30;5.70;;;1.50;99.90;;;;;;5052958;28;20041;-65
2022/04/11 00:02:59;;;;;;;12.63;6.55;;;1.50;99.90;;;;;;5053355;28;20439;-65
2022/04/11 00:05:26;;;;;;;12.55;6.72;;;1.50;99.90;;;;;;5053060;28;20084;-66
2022/04/11 00:07:52;;;;;;;8.80;5.47;;;1.40;99.90;;;;;;5052864;28;20076;-65
2022/04/11 00:10:18;;;;;;;11.18;6.53;;;1.40;99.90;;;;;;5051657;28;20074;-65
2022/04/11 00:12:44;;;;;;;7.97;5.93;;;1.40;99.90;;;;;;5053701;28;20135;-65
2022/04/11 00:15:10;;;;;;;10.18;6.07;;;1.40;99.90;;;;;;5052831;28;20067;-65
2022/04/11 00:17:37;;;;;;;12.40;6.22;;;1.40;99.90;;;;;;5073059;28;20489;-65
2022/04/11 00:20:04;;;;;;;11.68;6.82;;;1.40;99.90;;;;;;5072736;28;20044;-65
2022/04/11 00:22:33;;;;;;;12.52;6.65;;;1.30;99.90;;;;;;5072588;28;20412;-65
2022/04/11 00:24:59;;;;;;;10.23;6.20;;;1.30;99.90;;;;;;5072876;28;20429;-65
2022/04/11 00:27:25;;;;;;;7.30;4.60;;;1.20;99.90;;;;;;5071351;28;20044;-65
2022/04/11 00:29:50;;;;;;;6.38;4.55;;;1.20;99.90;;;;;;5071418;28;20060;-65
2022/04/11 00:32:16;;;;;;;6.90;4.13;;;1.10;99.90;;;;;;5071315;28;20055;-65
2022/04/11 00:34:42;;;;;;;6.88;4.18;;;1.10;99.90;;;;;;5072827;28;20039;-65
2022/04/11 00:37:07;;;;;;;8.02;3.40;;;1.10;99.90;;;;;;5072703;28;20048;-65
2022/04/11 00:39:33;;;;;;;8.02;4.10;;;1.10;99.90;;;;;;5071336;28;20123;-65
2022/04/11 00:42:08;;;;;;;5.88;3.42;;;1.00;99.90;;;;;;5071290;28;20048;-65
2022/04/11 00:44:33;;;;;;;6.45;3.45;;;1.00;99.90;;;;;;5070175;28;20048;-65
2022/04/11 00:46:59;;;;;;;6.90;4.00;;;1.00;99.90;;;;;;5071539;28;20111;-67
2022/04/11 00:49:25;;;;;;;6.38;4.28;;;1.00;99.90;;;;;;5071239;28;20067;-68
2022/04/11 00:51:51;;;;;;;8.18;4.10;;;1.00;99.90;;;;;;5072536;28;20049;-68
2022/04/11 00:54:17;;;;;;;6.63;3.92;;;0.90;99.90;;;;;;5054395;28;20438;-68
2022/04/11 00:56:44;;;;;;;8.27;3.92;;;0.90;99.90;;;;;;5071195;28;20055;-67
2022/04/11 00:59:13;;;;;;;5.75;4.07;;;0.90;99.90;;;;;;5072365;28;20032;-67
2022/04/11 01:01:39;;;;;;;7.47;4.10;;;0.90;99.90;;;;;;5072459;28;20040;-67
2022/04/11 01:04:05;;;;;;;6.55;3.58;;;0.80;99.90;;;;;;5072447;28;20090;-67
2022/04/11 01:06:31;;;;;;;7.15;3.75;;;0.80;99.90;;;;;;5072154;28;20481;-67
2022/04/11 01:08:57;;;;;;;5.72;3.55;;;0.80;99.90;;;;;;5071285;28;20032;-67
2022/04/11 01:11:23;;;;;;;7.82;4.60;;;0.80;99.90;;;;;;5071194;28;20437;-67
2022/04/11 01:13:49;;;;;;;6.13;4.22;;;0.80;99.90;;;;;;5060970;28;20079;-67
2022/04/11 01:16:27;;;;;;;8.35;4.03;;;0.80;99.90;;;;;;5050018;28;20048;-68
2022/04/11 01:18:52;;;;;;;8.65;4.38;;;0.80;99.90;;;;;;5051122;28;20040;-68
2022/04/11 01:21:18;;;;;;;12.68;4.45;;;0.80;99.90;;;;;;5050768;28;20087;-68
2022/04/11 01:23:44;;;;;;;8.30;4.47;;;0.80;99.90;;;;;;5034351;28;20045;-67
2022/04/11 01:26:11;;;;;;;8.68;5.00;;;0.80;99.90;;;;;;5051848;28;20074;-67
2022/04/11 01:28:38;;;;;;;5.20;3.70;;;0.80;99.90;;;;;;5034253;28;20048;-67
2022/04/11 01:31:07;;;;;;;4.60;3.63;;;0.80;99.90;;;;;;5050925;28;20444;-68
2022/04/11 01:33:33;;;;;;;7.30;4.13;;;0.80;99.90;;;;;;5051019;28;20044;-68
2022/04/11 01:35:58;;;;;;;8.05;4.80;;;0.70;99.90;;;;;;5055546;28;20044;-68
2022/04/11 01:38:24;;;;;;;8.70;5.00;;;0.80;99.90;;;;;;5054629;28;20135;-68
2022/04/11 01:40:57;;;;;;;6.03;4.28;;;0.80;99.90;;;;;;5055542;28;20554;-68
2022/04/11 01:43:24;;;;;;;6.28;4.47;;;0.80;99.90;;;;;;5054570;28;20045;-67
2022/04/11 01:45:51;;;;;;;11.60;4.95;;;0.70;99.90;;;;;;5051966;28;20053;-67
2022/04/11 01:48:17;;;;;;;8.00;4.68;;;0.70;99.90;;;;;;5037756;28;20082;-67
2022/04/11 01:50:43;;;;;;;5.05;3.92;;;0.70;99.90;;;;;;5054234;28;20044;-67
2022/04/11 01:53:13;;;;;;;10.45;4.97;;;0.70;99.90;;;;;;5037396;28;20485;-68
2022/04/11 01:55:40;;;;;;;7.45;3.90;;;0.80;99.90;;;;;;5037149;28;20134;-67
2022/04/11 01:58:06;;;;;;;6.85;4.03;;;0.80;99.90;;;;;;5055337;28;20163;-68
2022/04/11 02:00:34;;;;;;;7.38;3.88;;;0.80;99.90;;;;;;5055301;28;20094;-67
2022/04/11 02:03:01;;;;;;;6.47;3.90;;;0.80;99.90;;;;;;5055076;28;20048;-67
2022/04/11 02:05:27;;;;;;;7.95;4.53;;;0.80;99.90;;;;;;5053944;28;20347;-67
2022/04/11 02:07:54;;;;;;;10.10;4.78;;;0.90;99.90;;;;;;5053578;28;20044;-67
2022/04/11 02:10:20;;;;;;;8.98;4.50;;;0.90;99.90;;;;;;5055346;28;20370;-67
2022/04/11 02:12:49;;;;;;;6.93;4.53;;;0.90;99.90;;;;;;5039694;28;20071;-67
2022/04/11 02:15:15;;;;;;;8.38;4.55;;;0.90;99.90;;;;;;5071680;28;20393;-67
2022/04/11 02:17:41;;;;;;;7.75;4.95;;;0.90;99.90;;;;;;5073532;28;20048;-67
2022/04/11 02:20:08;;;;;;;6.47;4.20;;;0.90;99.90;;;;;;5073442;28;20519;-67
2022/04/11 02:22:58;;;;;;;6.75;4.80;;;0.90;99.90;;;;;;5073758;28;20390;-68
2022/04/11 02:25:25;;;;;;;7.55;4.45;;;0.90;99.90;;;;;;5073662;28;20044;-67
2022/04/11 02:27:57;;;;;;;9.55;4.45;;;0.90;99.90;;;;;;5073391;28;20044;-67
2022/04/11 02:30:24;;;;;;;7.78;4.57;;;0.90;99.90;;;;;;5073399;28;20041;-67
2022/04/11 02:32:51;;;;;;;9.00;4.53;;;0.80;99.90;;;;;;5074325;28;20120;-67
2022/04/11 02:35:18;;;;;;;6.45;3.25;;;0.80;99.90;;;;;;5073738;28;20070;-67
2022/04/11 02:37:45;;;;;;;6.50;3.63;;;0.80;99.90;;;;;;5073416;28;20079;-68
2022/04/11 02:40:12;;;;;;;7.47;4.43;;;0.80;99.90;;;;;;5073234;28;20501;-68
2022/04/11 02:42:42;;;;;;;6.88;4.30;;;0.80;99.90;;;;;;5074387;28;20079;-68
2022/04/11 02:45:12;;;;;;;10.80;5.20;;;0.80;99.90;;;;;;5070681;28;20499;-68
2022/04/11 02:47:38;;;;;;;7.53;4.70;;;0.80;99.90;;;;;;5073190;28;20124;-68
2022/04/11 02:50:04;;;;;;;7.18;4.68;;;0.80;99.90;;;;;;5073038;28;20618;-68
2022/04/11 02:52:30;;;;;;;9.85;5.75;;;0.80;99.90;;;;;;5073132;28;20036;-68
2022/04/11 02:54:57;;;;;;;9.70;5.60;;;0.80;99.90;;;;;;5074350;28;20051;-68
2022/04/11 02:57:23;;;;;;;11.15;6.32;;;0.80;99.90;;;;;;5074220;28;20059;-68
2022/04/11 02:59:49;;;;;;;7.85;5.22;;;0.80;99.90;;;;;;5072803;28;20037;-68
2022/04/11 03:02:15;;;;;;;7.03;4.57;;;0.80;99.90;;;;;;5072613;28;20048;-68
2022/04/11 03:04:41;;;;;;;10.68;6.07;;;0.70;99.90;;;;;;5074148;28;20040;-67
2022/04/11 03:07:07;;;;;;;10.25;5.95;;;0.70;99.90;;;;;;5072501;28;20032;-68
2022/04/11 03:09:33;;;;;;;8.65;6.10;;;0.70;99.90;;;;;;5056027;28;20037;-67
2022/04/11 03:11:59;;;;;;;8.48;6.38;;;0.70;99.90;;;;;;5072594;28;20051;-68
2022/04/11 03:14:25;;;;;;;8.25;5.60;;;0.70;99.90;;;;;;5054230;28;20033;-68
2022/04/11 03:16:50;;;;;;;13.05;6.65;;;0.70;99.90;;;;;;5052474;28;20040;-68
2022/04/11 03:19:17;;;;;;;11.48;6.72;;;0.70;99.90;;;;;;5052392;28;20033;-68
2022/04/11 03:21:42;;;;;;;10.48;6.13;;;0.70;99.90;;;;;;5035683;28;20061;-68
2022/04/11 03:24:08;;;;;;;9.35;4.85;;;0.70;99.90;;;;;;5052560;28;20075;-68
2022/04/11 03:26:34;;;;;;;8.75;4.97;;;0.70;99.90;;;;;;5035604;28;20056;-68
2022/04/11 03:29:00;;;;;;;9.48;5.70;;;0.70;99.90;;;;;;5052346;28;20040;-68
2022/04/11 03:31:26;;;;;;;10.68;7.10;;;0.80;99.90;;;;;;5035594;28;20044;-67
2022/04/11 03:33:52;;;;;;;9.70;5.45;;;0.80;99.90;;;;;;5053643;28;20037;-68
2022/04/11 03:36:18;;;;;;;10.20;5.95;;;0.80;99.90;;;;;;5053442;28;20497;-68
2022/04/11 03:38:44;;;;;;;10.57;6.03;;;0.80;99.90;;;;;;5052370;28;20044;-67
2022/04/11 03:41:10;;;;;;;10.75;5.45;;;0.80;99.90;;;;;;5052156;28;20424;-67
2022/04/11 03:43:35;;;;;;;9.68;5.90;;;0.80;99.90;;;;;;5052318;28;20091;-68
2022/04/11 03:46:01;;;;;;;9.13;5.82;;;0.90;99.90;;;;;;5049689;28;20060;-67
2022/04/11 03:48:27;;;;;;;8.80;5.97;;;0.90;99.90;;;;;;5051925;28;20037;-68
2022/04/11 03:50:53;;;;;;;10.82;6.13;;;0.90;99.90;;;;;;5035570;28;20045;-68
2022/04/11 03:53:19;;;;;;;9.80;6.05;;;0.90;99.90;;;;;;5051847;28;20041;-68
2022/04/11 03:55:44;;;;;;;9.38;6.22;;;0.90;99.90;;;;;;5052021;28;20151;-68
2022/04/11 03:58:11;;;;;;;9.27;5.57;;;1.00;99.90;;;;;;5034693;28;20502;-68
2022/04/11 04:00:37;;;;;;;9.82;5.63;;;1.00;99.90;;;;;;5051900;28;20075;-68
2022/04/11 04:03:11;;;;;;;10.57;5.60;;;1.00;99.90;;;;;;5032262;28;20449;-68
2022/04/11 04:05:41;;;;;;;11.07;5.43;;;1.10;99.90;;;;;;5051615;28;20477;-68
2022/04/11 04:08:08;;;;;;;8.93;6.05;;;1.10;99.90;;;;;;5052883;28;20098;-68
2022/04/11 04:10:34;;;;;;;10.32;5.40;;;1.10;99.90;;;;;;5051607;28;20477;-67
2022/04/11 04:13:00;;;;;;;6.68;5.05;;;1.20;99.90;;;;;;5055597;28;20090;-68
2022/04/11 04:15:26;;;;;;;9.23;5.38;;;1.20;99.90;;;;;;5069271;28;20051;-68
2022/04/11 04:17:52;;;;;;;12.73;5.95;;;1.30;99.90;;;;;;5071430;28;20040;-68
2022/04/11 04:20:18;;;;;;;7.10;4.82;;;1.30;99.90;;;;;;5071674;28;20143;-68
2022/04/11 04:22:44;;;;;;;7.40;4.63;;;1.30;99.90;;;;;;5071547;28;20127;-68
2022/04/11 04:25:10;;;;;;;8.65;5.05;;;1.40;99.90;;;;;;5071497;28;20045;-68
2022/04/11 04:27:36;;;;;;;9.00;4.40;;;1.40;99.90;;;;;;5071516;28;20033;-68
2022/04/11 04:30:04;;;;;;;9.20;5.22;;;1.40;99.90;;;;;;5072962;28;20128;-68
2022/04/11 04:32:29;;;;;;;8.15;4.50;;;1.50;99.90;;;;;;5071706;28;20054;-68
2022/04/11 04:34:55;;;;;;;7.93;5.20;;;1.50;99.90;;;;;;5072525;28;20465;-68
2022/04/11 04:37:21;;;;;;;6.35;4.65;;;1.50;99.90;;;;;;5072771;28;20048;-68
2022/04/11 04:39:47;;;;;;;9.63;4.50;;;1.60;99.90;;;;;;5071256;28;20043;-68
2022/04/11 04:42:19;;;;;;;7.93;4.85;;;1.60;99.90;;;;;;5072493;28;20044;-68
2022/04/11 04:44:44;;;;;;;8.07;5.22;;;1.60;99.90;;;;;;5070277;28;20128;-68
2022/04/11 04:47:10;;;;;;;7.93;4.63;;;1.70;99.90;;;;;;5071236;28;20628;-68
2022/04/11 04:49:36;;;;;;;12.73;4.85;;;1.70;99.90;;;;;;5071150;28;20041;-68
2022/04/11 04:52:02;;;;;;;8.75;5.38;;;1.80;99.90;;;;;;5071230;28;20044;-68
2022/04/11 04:54:28;;;;;;;11.77;5.32;;;1.80;99.90;;;;;;5054501;28;20044;-68
2022/04/11 04:56:54;;;;;;;6.68;4.70;;;1.80;99.90;;;;;;5054433;28;20036;-68
2022/04/11 04:59:20;;;;;;;7.90;4.47;;;1.80;99.90;;;;;;5072416;28;20037;-68
2022/04/11 05:01:45;;;;;;;9.50;4.95;;;1.90;99.90;;;;;;5071164;28;20135;-68
2022/04/11 05:04:11;;;;;;;8.60;4.13;;;1.90;99.90;;;;;;5071067;28;20123;-68
2022/04/11 05:06:37;;;;;;;8.82;4.30;;;2.00;99.90;;;;;;5071253;28;20095;-68
2022/04/11 05:09:03;;;;;;;8.57;4.03;;;2.00;99.90;;;;;;5071907;28;20044;-68
2022/04/11 05:11:29;;;;;;;8.15;4.00;;;2.10;99.90;;;;;;5074894;28;20048;-68
2022/04/11 05:13:54;;;;;;;5.20;3.55;;;2.10;99.90;;;;;;5046375;28;20198;-68
2022/04/11 05:16:20;;;;;;;6.68;3.33;;;2.10;99.90;;;;;;5052950;28;20053;-68
2022/04/11 05:18:46;;;;;;;7.28;4.07;;;2.10;99.90;;;;;;5038378;28;20428;-68
2022/04/11 05:21:12;;;;;;;8.45;4.38;;;2.20;99.90;;;;;;5054781;28;20138;-68
2022/04/11 05:23:38;;;;;;;6.25;3.65;;;2.20;99.90;;;;;;5054683;28;20049;-68
2022/04/11 05:26:07;;;;;;;4.70;3.55;;;2.20;99.90;;;;;;5054629;28;20143;-68
2022/04/11 05:28:33;;;;;;;6.80;4.47;;;2.20;99.90;;;;;;5056211;28;20380;-68
2022/04/11 05:30:59;;;;;;;6.32;4.00;;;2.30;99.90;;;;;;5037917;28;20040;-68
2022/04/11 05:33:25;;;;;;;5.85;4.00;;;2.40;99.90;;;;;;5055441;28;20037;-68
2022/04/11 05:35:50;;;;;;;11.40;4.38;;;2.40;99.90;;;;;;5037895;28;20516;-68
2022/04/11 05:38:16;;;;;;;6.65;4.13;;;2.50;99.90;;;;;;5055816;28;20047;-69
2022/04/11 05:40:46;;;;;;;8.27;4.20;;;2.60;99.90;;;;;;5055531;28;20473;-69
2022/04/11 05:43:13;;;;;;;8.38;4.60;;;2.60;99.90;;;;;;5055893;28;20420;-68
2022/04/11 05:45:39;;;;;;;7.80;4.07;;;2.70;99.90;;;;;;5053442;28;20086;-68
2022/04/11 05:48:06;;;;;;;9.80;4.60;;;2.70;99.90;;;;;;5054301;28;20512;-68
2022/04/11 05:50:31;;;;;;;8.05;4.63;;;2.80;99.90;;;;;;5055400;28;20056;-69
2022/04/11 05:52:57;;;;;;;6.88;4.15;;;2.80;99.90;;;;;;5053883;28;20037;-69
2022/04/11 05:55:23;;;;;;;6.47;4.00;;;2.90;99.90;;;;;;5054069;28;20044;-69
2022/04/11 05:57:49;;;;;;;8.75;3.72;;;2.90;99.90;;;;;;5055266;28;20037;-69
2022/04/11 06:00:16;;;;;;;5.53;3.60;;;3.00;99.90;;;;;;5054446;28;20496;-69
2022/04/11 06:02:43;;;;;;;4.68;2.85;;;3.00;99.90;;;;;;5036754;28;20072;-69
2022/04/11 06:05:11;;;;;;;6.78;3.40;;;3.00;99.90;;;;;;5052918;28;20529;-69
2022/04/11 06:07:38;;;;;;;6.25;3.38;;;3.10;99.90;;;;;;5036641;28;20041;-68
2022/04/11 06:10:05;;;;;;;6.40;3.40;;;3.10;99.90;;;;;;5052812;28;20045;-68
2022/04/11 06:12:31;;;;;;;6.20;3.63;;;3.20;99.90;;;;;;5053211;28;20179;-68
2022/04/11 06:14:58;;;;;;;7.53;3.20;;;3.20;99.90;;;;;;5071667;28;20127;-68
2022/04/11 06:17:25;;;;;;;8.32;3.55;;;3.30;99.90;;;;;;5074187;28;20037;-68
2022/04/11 06:19:55;;;;;;;7.18;4.68;;;3.40;99.90;;;;;;5055518;28;20036;-68
2022/04/11 06:22:22;;;;;;;9.48;4.40;;;3.50;99.90;;;;;;5072549;28;20497;-68
2022/04/11 06:24:49;;;;;;;7.75;4.25;;;3.60;99.90;;;;;;5074054;28;20044;-68
2022/04/11 06:27:16;;;;;;;10.00;4.80;;;3.70;99.90;;;;;;5074108;28;20441;-68
2022/04/11 06:29:42;;;;;;;5.97;4.05;;;3.80;99.90;;;;;;5072776;28;20514;-68
2022/04/11 06:32:08;;;;;;;10.20;4.28;;;3.90;99.90;;;;;;5073859;28;20079;-68
2022/04/11 06:34:37;;;;;;;8.50;4.68;;;4.00;99.90;;;;;;5072612;28;20429;-68
2022/04/11 06:37:04;;;;;;;8.93;4.90;;;4.10;99.90;;;;;;5072394;28;20037;-68
2022/04/11 06:39:30;;;;;;;7.40;3.97;;;4.20;99.90;;;;;;5072589;28;20041;-68
2022/04/11 06:41:56;;;;;;;10.63;5.00;;;4.40;99.90;;;;;;5055689;28;20110;-70
2022/04/11 06:44:22;;;;;;;8.90;5.18;;;4.50;99.90;;;;;;5070109;28;20124;-71
2022/04/11 06:46:48;;;;;;;8.85;4.50;;;4.60;99.90;;;;;;5073634;28;20094;-69
2022/04/11 06:49:14;;;;;;;7.03;3.80;;;4.60;99.90;;;;;;5072559;28;20036;-70
2022/04/11 06:51:40;;;;;;;6.93;4.18;;;4.70;99.90;;;;;;5072044;28;20037;-68
2022/04/11 06:54:07;;;;;;;8.70;4.40;;;4.90;99.90;;;;;;5071747;28;20048;-69
2022/04/11 06:56:33;;;;;;;9.15;3.88;;;4.90;99.90;;;;;;5073203;28;20045;-70
2022/04/11 06:58:58;;;;;;;8.30;3.83;;;5.00;99.90;;;;;;5055373;28;20047;-70
2022/04/11 07:01:24;;;;;;;8.05;4.22;;;5.10;99.90;;;;;;5065073;28;20037;-71
2022/04/11 07:03:51;;;;;;;8.70;4.10;;;5.20;99.90;;;;;;5071805;28;20109;-71
2022/04/11 07:06:17;;;;;;;7.40;3.88;;;5.30;99.90;;;;;;5071449;28;20477;-69
2022/04/11 07:08:43;;;;;;;5.90;3.70;;;5.50;99.90;;;;;;5071655;28;20047;-69
2022/04/11 07:11:09;;;;;;;8.40;4.15;;;5.60;99.90;;;;;;5072672;28;20045;-70
2022/04/11 07:13:34;;;;;;;10.30;4.68;;;5.70;99.90;;;;;;5046127;28;20175;-68
2022/04/11 07:16:01;;;;;;;8.50;4.50;;;5.80;99.90;;;;;;5049136;28;20386;-69
2022/04/11 07:18:28;;;;;;;9.57;4.53;;;5.90;99.90;;;;;;5051715;28;20052;-69
2022/04/11 07:20:54;;;;;;;6.50;4.30;;;6.00;99.90;;;;;;5051545;28;20485;-70
2022/04/11 07:23:21;;;;;;;8.90;4.40;;;6.10;99.90;;;;;;5035230;28;20183;-70
2022/04/11 07:25:47;;;;;;;7.75;5.10;;;6.20;99.90;;;;;;5051466;28;20060;-69
2022/04/11 07:28:14;;;;;;;8.48;4.55;;;6.30;99.90;;;;;;5051715;28;20397;-68
2022/04/11 07:30:40;;;;;;;7.78;4.00;;;6.50;99.90;;;;;;5035019;28;20044;-68
2022/04/11 07:33:08;;;;;;;7.70;4.60;;;6.60;99.90;;;;;;5050609;28;20541;-69
2022/04/11 07:35:34;;;;;;;8.27;5.32;;;6.80;99.90;;;;;;5051431;28;20044;-68
2022/04/11 07:38:01;;;;;;;6.30;4.55;;;6.90;99.90;;;;;;5052760;28;20390;-68
2022/04/11 07:40:30;;;;;;;6.40;3.90;;;7.00;99.90;;;;;;5051366;28;20102;-68
2022/04/11 07:42:56;;;;;;;7.72;4.30;;;7.10;99.90;;;;;;5052476;28;20493;-69
2022/04/11 07:45:22;;;;;;;7.15;4.30;;;7.20;99.90;;;;;;5048613;28;20136;-69
2022/04/11 07:47:49;;;;;;;7.53;4.22;;;7.30;99.90;;;;;;5051367;28;20429;-68
2022/04/11 07:50:15;;;;;;;8.20;4.72;;;7.40;99.90;;;;;;5034463;28;20110;-68
2022/04/11 07:52:43;;;;;;;8.43;5.32;;;7.50;99.90;;;;;;5052197;28;20041;-68
2022/04/11 07:55:10;;;;;;;7.85;4.57;;;7.70;99.90;;;;;;5051037;28;20489;-69
2022/04/11 07:57:36;;;;;;;8.88;3.97;;;7.80;99.90;;;;;;5050855;28;20566;-68
2022/04/11 08:00:06;;;;;;;9.60;4.47;;;8.00;99.90;;;;;;5050897;28;20500;-68
2022/04/11 08:02:32;;;;;;;8.32;4.22;;;8.00;99.90;;;;;;5051628;28;20052;-68
2022/04/11 08:05:02;;;;;;;8.75;4.28;;;8.10;99.90;;;;;;5034292;28;20045;-68
2022/04/11 08:07:34;;;;;;;7.03;5.13;;;8.30;99.90;;;;;;5047921;28;20044;-68
2022/04/11 08:10:02;;;;;;;7.55;4.00;;;8.40;99.90;;;;;;5050674;28;20045;-68
2022/04/11 08:12:27;;;;;;;9.45;4.38;;;8.50;99.90;;;;;;5052027;28;20032;-68
2022/04/11 08:14:53;;;;;;;8.95;4.35;;;8.60;99.90;;;;;;5062663;28;20503;-69
2022/04/11 08:17:19;;;;;;;9.13;4.07;;;8.70;99.90;;;;;;5071106;28;20048;-69
2022/04/11 08:19:46;;;;;;;7.82;3.85;;;8.90;99.90;;;;;;5071398;28;20141;-69
2022/04/11 08:22:12;;;;;;;8.20;4.32;;;9.00;99.90;;;;;;5071154;28;20053;-69
2022/04/11 08:24:38;;;;;;;9.68;4.43;;;9.30;99.90;;;;;;5072734;28;20045;-69
2022/04/11 08:27:04;;;;;;;6.63;3.90;;;9.50;99.90;;;;;;5071565;28;20499;-69
2022/04/11 08:29:29;;;;;;;5.78;3.95;;;9.70;99.90;;;;;;5071162;28;20120;-69
2022/04/11 08:31:55;;;;;;;8.15;4.50;;;9.90;99.90;;;;;;5072337;28;20124;-69
2022/04/11 08:34:21;;;;;;;5.82;3.92;;;10.40;99.90;;;;;;5071242;28;20127;-69
2022/04/11 08:36:48;;;;;;;7.20;3.92;;;10.80;99.90;;;;;;5070828;28;20088;-69
2022/04/11 08:39:15;;;;;;;7.80;4.43;;;11.10;99.90;;;;;;5064672;28;20493;-69
2022/04/11 08:41:41;;;;;;;9.95;4.90;;;11.40;99.90;;;;;;5054263;28;20143;-69
2022/04/11 08:44:08;;;;;;;6.18;3.80;;;11.80;99.90;;;;;;5064628;28;20545;-72
2022/04/11 08:46:35;;;;;;;9.77;4.10;;;12.20;99.90;;;;;;5063790;28;20086;-69
2022/04/11 08:49:03;;;;;;;7.05;4.05;;;12.20;99.90;;;;;;5063653;28;20095;-69
2022/04/11 08:51:31;;;;;;;5.88;3.67;;;12.40;99.90;;;;;;5042973;28;20067;-71
2022/04/11 08:54:02;;;;;;;7.18;3.50;;;12.70;99.90;;;;;;5055531;28;20044;-72
2022/04/11 08:56:28;;;;;;;7.35;3.45;;;12.90;99.90;;;;;;5061543;28;20056;-71
2022/04/11 08:58:55;;;;;;;6.55;3.72;;;13.00;99.90;;;;;;5065540;28;20436;-71
2022/04/11 09:01:22;;;;;;;5.28;3.22;;;13.20;99.90;;;;;;5061562;28;20124;-72
2022/04/11 09:03:48;;;;;;;7.95;3.35;;;13.40;99.90;;;;;;5059974;28;20090;-72
2022/04/11 09:06:15;;;;;;;6.07;3.25;;;13.70;99.90;;;;;;5060387;28;20029;-72
2022/04/11 09:08:47;;;;;;;7.03;3.55;;;14.00;99.90;;;;;;5065131;28;20060;-72
2022/04/11 09:11:12;;;;;;;8.75;3.10;;;14.40;99.90;;;;;;5054146;28;20041;-73
2022/04/11 09:13:51;;;;;;;6.28;3.22;;;14.80;99.90;;;;;;5063345;28;20496;-73
2022/04/11 09:16:18;;;;;;;7.00;3.35;;;15.00;96.50;;;;;;5073057;28;20049;-77
2022/04/11 09:18:51;;;;;;;5.20;3.58;;;15.20;96.20;;;;;;5073884;28;20052;-73
2022/04/11 09:21:18;;;;;;;6.35;2.95;;;15.20;83.90;;;;;;5074956;28;20052;-71
2022/04/11 09:23:45;;;;;;;5.18;2.90;;;15.30;89.20;;;;;;5075078;28;20051;-72
2022/04/11 09:26:21;;;;;;;7.90;3.53;;;15.50;85.30;;;;;;5060171;28;20044;-72
2022/04/11 09:29:00;;;;;;;5.15;2.83;;;15.80;86.30;;;;;;5045005;28;20040;-75
2022/04/11 09:31:26;;;;;;;5.50;3.00;;;16.10;85.30;;;;;;5061394;28;20032;-72
2022/04/11 09:33:52;;;;;;;6.50;3.10;;;16.40;83.30;;;;;;5055420;28;20033;-74
2022/04/11 09:36:20;;;;;;;8.00;2.80;;;16.60;73.30;;;;;;5058658;28;20063;-72
2022/04/11 09:39:00;;;;;;;5.18;2.92;;;16.70;75.70;;;;;;5054249;28;20037;-78
2022/04/11 09:41:29;;;;;;;;;;;16.90;77.80;;;;;;5055100;28;20128;-72
2022/04/11 09:43:56;;;;;;;10.75;3.65;;;17.00;75.20;;;;;;5054471;28;20397;-73
2022/04/11 09:46:23;;;;;;;5.75;3.17;;;17.10;76.70;;;;;;5052774;28;20048;-72
2022/04/11 09:48:52;;;;;;;6.13;3.70;;;17.30;73.30;;;;;;5054922;28;20033;-73
2022/04/11 09:51:18;;;;;;;7.50;4.53;;;17.30;68.90;;;;;;5040356;28;20094;-73
2022/04/11 09:53:45;;;;;;;5.07;3.42;;;17.40;67.50;;;;;;5053667;28;20123;-78
2022/04/11 09:56:11;;;;;;;8.63;3.88;;;17.50;58.20;;;;;;5043246;28;20085;-75
2022/04/11 09:58:38;;;;;;;7.20;3.70;;;17.20;58.40;;;;;;5051730;28;20055;-75
2022/04/11 10:01:05;;;;;;;8.23;4.07;;;17.10;60.00;;;;;;5072856;28;20036;-71
2022/04/11 10:03:32;;;;;;;7.70;3.75;;;17.10;60.80;;;;;;5073760;28;20098;-79
2022/04/11 10:05:59;;;;;;;6.72;3.95;;;17.20;58.60;;;;;;5060145;28;20377;-78
2022/04/11 10:08:27;;;;;;;6.10;4.15;;;17.20;56.70;;;;;;5053858;28;20041;-79
2022/04/11 10:10:54;;;;;;;7.63;4.97;;;17.20;56.10;;;;;;5055161;28;20036;-78
2022/04/11 10:13:20;;;;;;;7.80;5.05;;;17.20;57.00;;;;;;5055374;28;20126;-75
2022/04/11 10:15:49;;;;;;;9.05;4.95;;;17.30;54.00;;;;;;5058717;28;20037;-75
2022/04/11 10:18:25;;;;;;;9.13;5.22;;;17.40;56.80;;;;;;5052821;28;20033;-79
2022/04/11 10:20:55;;;;;;;7.93;4.82;;;17.60;55.30;;;;;;5053442;28;20061;-75
2022/04/11 10:23:29;;;;;;;7.03;4.45;;;17.80;56.30;;;;;;5037194;28;20281;-72
2022/04/11 10:25:58;;;;;;;6.55;4.97;;;18.00;54.50;;;;;;5062734;28;20041;-80
2022/04/11 10:28:29;;;;;;;14.00;5.28;;;17.90;50.50;;;;;;5070947;28;20047;-75
2022/04/11 10:31:10;;;;;;;8.38;4.97;;;17.80;50.50;;;;;;5037057;28;20147;-79
2022/04/11 10:33:51;;;;;;;7.63;4.97;;;17.70;51.10;;;;;;5036962;28;20405;-76
2022/04/11 10:36:36;;;;;;;6.80;5.25;;;17.50;49.80;;;;;;5070181;28;20037;-74
2022/04/11 10:39:17;;;;;;;9.88;5.30;;;17.40;51.40;;;;;;5054483;28;20374;-75
2022/04/11 10:41:54;;;;;;;9.07;5.88;;;17.50;53.60;;;;;;5054275;28;20043;-78
2022/04/11 10:44:50;;;;;;;7.82;5.40;;;17.80;55.90;;;;;;5052550;28;20041;-73
2022/04/11 10:47:16;;;;;;;8.55;5.50;;;18.00;54.40;;;;;;5054359;28;20049;-74
2022/04/11 10:49:45;;;;;;;8.23;5.43;;;18.00;55.00;;;;;;5054674;28;20124;-78
2022/04/11 10:52:32;;;;;;;8.57;5.63;;;18.10;55.40;;;;;;5070704;28;20084;-78
2022/04/11 10:55:05;;;;;;;8.38;5.60;;;18.10;53.00;;;;;;5073069;28;20043;-72
2022/04/11 10:57:45;;;;;;;9.63;6.72;;;18.20;55.10;;;;;;5056623;28;20048;-73
2022/04/11 11:00:12;;;;;;;8.40;6.38;;;18.30;54.70;;;;;;5074055;28;20050;-75
2022/04/11 11:02:52;;;;;;;8.80;5.85;;;18.40;55.40;;;;;;5072760;28;20089;-72
2022/04/11 11:05:36;;;;;;;9.60;5.97;;;18.50;53.80;;;;;;5055929;28;20044;-76
2022/04/11 11:08:11;;;;;;;9.05;5.82;;;18.70;54.50;;;;;;5052204;28;20056;-75
2022/04/11 11:10:43;;;;;;;7.20;5.85;;;18.70;51.60;;;;;;5069340;28;20040;-78
2022/04/11 11:13:35;;;;;;;8.65;6.32;;;18.60;51.50;;;;;;5067437;28;20118;-75
2022/04/11 11:16:07;;;;;;;8.55;6.78;;;18.80;52.90;;;;;;5052065;28;20055;-72
2022/04/11 11:18:49;;;;;;;8.15;6.25;;;18.90;51.80;;;;;;5052715;28;20386;-71
2022/04/11 11:21:15;;;;;;;8.82;6.88;;;18.90;52.80;;;;;;5054038;28;20057;-73
2022/04/11 11:23:42;;;;;;;8.32;7.15;;;18.80;53.00;;;;;;5053599;28;20672;-75
2022/04/11 11:26:10;;;;;;;7.55;6.72;;;18.80;53.60;;;;;;5058676;28;20526;-74
2022/04/11 11:28:40;;;;;;;8.52;6.85;;;19.00;51.30;;;;;;5058182;28;20484;-77
2022/04/11 11:31:05;;;;;;;10.13;7.00;;;18.90;51.60;;;;;;5052916;28;20048;-78
2022/04/11 11:33:31;;;;;;;8.50;6.50;;;19.00;53.30;;;;;;5053717;28;20037;-77
2022/04/11 11:35:57;;;;;;;8.68;6.95;;;19.10;51.10;;;;;;5056608;28;20044;-74
2022/04/11 11:38:25;;;;;;;7.82;6.35;;;19.10;51.50;;;;;;5055883;28;20040;-78
2022/04/11 11:40:57;;;;;;;7.63;6.20;;;19.00;53.20;;;;;;5056052;28;20522;-73
2022/04/11 11:43:24;;;;;;;9.35;6.57;;;19.00;53.00;;;;;;5053244;28;20067;-79
2022/04/11 11:45:50;;;;;;;9.18;7.10;;;19.10;50.70;;;;;;5048296;28;20497;-73
2022/04/11 11:48:27;;;;;;;9.60;7.10;;;19.00;51.50;;;;;;5054922;28;20036;-74
2022/04/11 11:50:56;;;;;;;9.57;6.80;;;19.00;50.60;;;;;;5050766;28;20037;-70
2022/04/11 11:53:27;;;;;;;8.43;6.97;;;18.90;48.50;;;;;;5054420;28;20045;-71
2022/04/11 11:55:57;;;;;;;9.40;7.45;;;18.70;49.30;;;;;;5036190;28;20287;-73
2022/04/11 11:58:39;;;;;;;8.70;7.18;;;18.50;52.10;;;;;;5053468;28;20075;-75
2022/04/11 12:01:10;;;;;;;10.13;7.80;;;18.60;51.90;;;;;;5034264;28;20041;-73
2022/04/11 12:06:26;;;;;;;12.45;7.82;;;19.10;50.00;;;;;;5051393;28;20076;-72
2022/04/11 12:09:01;;;;;;;12.70;9.00;;;19.20;49.60;;;;;;5035584;28;20047;-69
2022/04/11 12:11:29;;;;;;;9.82;7.68;;;18.80;47.70;;;;;;5052395;28;20095;-73
2022/04/11 12:14:00;;;;;;;11.13;8.32;;;18.20;48.00;;;;;;5053923;28;20099;-71
2022/04/11 12:16:27;;;;;;;9.70;8.40;;;17.90;49.90;;;;;;5055107;28;20048;-75
2022/04/11 12:18:54;;;;;;;9.50;8.38;;;17.90;51.80;;;;;;5032956;28;20040;-71
2022/04/11 12:21:38;;;;;;;9.07;8.18;;;17.90;51.10;;;;;;5049597;28;20080;-73
2022/04/11 12:24:06;;;;;;;9.45;8.13;;;17.90;51.30;;;;;;5050320;28;20074;-73
2022/04/11 12:26:33;;;;;;;9.80;8.80;;;17.80;51.30;;;;;;5050322;28;20037;-77
2022/04/11 12:29:15;;;;;;;10.80;9.07;;;17.80;51.00;;;;;;5050278;28;20384;-72
2022/04/11 12:31:55;;;;;;;10.88;9.30;;;18.00;51.10;;;;;;5054031;28;20036;-74
2022/04/11 12:34:30;;;;;;;10.70;8.65;;;18.10;48.90;;;;;;5056458;28;20029;-78
2022/04/11 12:36:58;;;;;;;11.73;7.97;;;18.00;50.70;;;;;;5051764;28;20045;-70
2022/04/11 12:39:25;;;;;;;11.32;8.00;;;17.70;48.50;;;;;;5054948;28;20623;-75
2022/04/11 12:41:51;;;;;;;10.35;7.82;;;17.50;50.70;;;;;;5053163;28;20048;-73
2022/04/11 12:44:36;;;;;;;9.60;7.95;;;17.40;50.90;;;;;;5049790;28;20342;-77
2022/04/11 12:47:02;;;;;;;12.73;8.55;;;17.50;51.20;;;;;;5050712;28;20060;-75
2022/04/11 12:49:51;;;;;;;9.48;7.38;;;17.60;49.40;;;;;;5051655;28;20044;-74
2022/04/11 12:52:28;;;;;;;10.20;7.85;;;17.70;50.10;;;;;;5054154;28;20480;-75
2022/04/11 12:55:03;;;;;;;9.35;6.50;;;17.60;48.70;;;;;;5054125;28;20068;-79
2022/04/11 12:57:33;;;;;;;8.95;7.07;;;17.50;49.20;;;;;;5050774;28;20124;-75
2022/04/11 13:00:18;;;;;;;9.23;7.07;;;17.60;49.90;;;;;;5058441;28;20385;-79